createdAt,value
2024-05-09T00:00:30.362Z,75.90
2024-05-09T00:03:02.384Z,75.59
2024-05-09T00:05:29.077Z,75.94
2024-05-09T00:07:55.681Z,76.02
2024-05-09T00:10:29.090Z,75.75
2024-05-09T00:13:02.532Z,75.92
2024-05-09T00:15:28.990Z,76.08
2024-05-09T00:17:55.640Z,76.12
2024-05-09T00:20:28.406Z,75.24
2024-05-09T00:23:01.778Z,76.07
2024-05-09T00:25:28.691Z,76.15
2024-05-09T00:27:55.148Z,76.10
2024-05-09T00:30:31.015Z,76.01
2024-05-09T00:33:01.344Z,76.12
2024-05-09T00:35:28.054Z,75.42
2024-05-09T00:37:54.578Z,75.16
2024-05-09T00:40:30.805Z,75.58
2024-05-09T00:43:07.810Z,75.47
2024-05-09T00:45:34.989Z,75.31
2024-05-09T00:48:03.856Z,75.55
2024-05-09T00:50:36.281Z,76.51
2024-05-09T00:53:05.825Z,76.02
2024-05-09T00:55:32.461Z,76.46
2024-05-09T00:57:59.036Z,74.58
2024-05-09T01:00:31.795Z,76.91
2024-05-09T01:03:05.642Z,76.80
2024-05-09T01:05:32.585Z,76.87
2024-05-09T01:07:59.234Z,76.39
2024-05-09T01:10:33.512Z,75.72
2024-05-09T01:13:02.589Z,76.45
2024-05-09T01:15:29.082Z,75.45
2024-05-09T01:17:56.498Z,75.93
2024-05-09T01:20:32.184Z,77.38
2024-05-09T01:23:07.417Z,76.48
2024-05-09T01:25:34.329Z,76.68
2024-05-09T01:28:01.285Z,76.60
2024-05-09T01:30:34.105Z,76.51
2024-05-09T01:33:03.587Z,76.54
2024-05-09T01:35:30.451Z,76.14
2024-05-09T01:37:57.034Z,76.28
2024-05-09T01:40:33.312Z,75.92
2024-05-09T01:43:04.491Z,75.93
2024-05-09T01:45:31.019Z,75.44
2024-05-09T01:47:57.622Z,76.10
2024-05-09T01:50:35.770Z,75.67
2024-05-09T01:53:05.717Z,75.49
2024-05-09T01:55:32.467Z,75.18
2024-05-09T01:57:58.941Z,74.98
2024-05-09T02:00:34.175Z,75.87
2024-05-09T02:03:08.752Z,75.99
2024-05-09T02:05:35.602Z,75.69
2024-05-09T02:08:02.248Z,75.66
2024-05-09T02:10:32.606Z,75.65
2024-05-09T02:12:59.879Z,75.40
2024-05-09T02:15:26.332Z,75.27
2024-05-09T02:17:53.041Z,75.80
2024-05-09T02:20:29.992Z,75.36
2024-05-09T02:23:02.457Z,75.15
2024-05-09T02:25:29.895Z,75.37
2024-05-09T02:27:56.383Z,75.06
2024-05-09T02:30:30.509Z,75.36
2024-05-09T02:33:05.447Z,75.11
2024-05-09T02:35:32.118Z,75.58
2024-05-09T02:37:58.696Z,74.95
2024-05-09T02:40:33.370Z,75.32
2024-05-09T02:43:03.706Z,75.56
2024-05-09T02:45:30.202Z,75.84
2024-05-09T02:47:56.900Z,75.79
2024-05-09T02:50:30.588Z,75.72
2024-05-09T02:53:04.305Z,75.53
2024-05-09T02:55:30.938Z,75.63
2024-05-09T02:57:57.555Z,75.85
2024-05-09T03:00:30.041Z,75.52
2024-05-09T03:03:04.970Z,75.31
2024-05-09T03:05:31.754Z,74.76
2024-05-09T03:07:58.399Z,75.33
2024-05-09T03:10:28.633Z,75.50
2024-05-09T03:12:55.798Z,75.26
2024-05-09T03:15:22.369Z,75.34
2024-05-09T03:17:49.288Z,75.19
2024-05-09T03:20:23.272Z,74.83
2024-05-09T03:22:52.718Z,74.95
2024-05-09T03:25:20.472Z,74.18
2024-05-09T03:27:46.934Z,74.36
2024-05-09T03:30:25.894Z,74.98
2024-05-09T03:32:59.992Z,74.44
2024-05-09T03:35:26.726Z,74.55
2024-05-09T03:37:53.323Z,74.38
2024-05-09T03:40:23.800Z,74.24
2024-05-09T03:42:53.033Z,74.11
2024-05-09T03:45:19.499Z,74.07
2024-05-09T03:47:46.280Z,74.12
2024-05-09T03:50:21.872Z,73.83
2024-05-09T03:52:52.435Z,73.85
2024-05-09T03:55:18.971Z,73.99
2024-05-09T03:57:45.455Z,74.06
2024-05-09T04:00:18.024Z,72.59
2024-05-09T04:02:52.310Z,72.79
2024-05-09T04:05:18.945Z,73.40
2024-05-09T04:07:45.533Z,74.27
2024-05-09T04:10:20.965Z,73.97
2024-05-09T04:12:54.238Z,73.03
2024-05-09T04:15:20.699Z,73.48
2024-05-09T04:17:47.309Z,72.62
2024-05-09T04:20:24.191Z,71.53
2024-05-09T04:22:59.756Z,71.59
2024-05-09T04:25:26.258Z,71.45
2024-05-09T04:27:52.744Z,71.36
2024-05-09T04:30:26.286Z,71.07
2024-05-09T04:33:02.235Z,70.41
2024-05-09T04:35:28.832Z,70.63
2024-05-09T04:37:55.357Z,70.22
2024-05-09T04:40:28.540Z,68.97
2024-05-09T04:43:00.176Z,68.00
2024-05-09T04:45:26.671Z,66.37
2024-05-09T04:47:53.968Z,65.86
2024-05-09T04:50:29.370Z,64.75
2024-05-09T04:53:02.245Z,63.00
2024-05-09T04:55:28.778Z,61.49
2024-05-09T04:57:55.264Z,59.49
2024-05-09T05:00:28.867Z,57.81
2024-05-09T05:03:02.003Z,56.32
2024-05-09T05:05:28.683Z,55.13
2024-05-09T05:07:55.227Z,54.12
2024-05-09T05:10:29.434Z,53.37
2024-05-09T05:13:01.753Z,52.64
2024-05-09T05:15:28.204Z,52.13
2024-05-09T05:17:54.802Z,52.01
2024-05-09T05:20:27.762Z,51.22
2024-05-09T05:22:59.660Z,50.82
2024-05-09T05:25:26.247Z,50.88
2024-05-09T05:27:52.757Z,49.99
2024-05-09T05:30:25.000Z,50.09
2024-05-09T05:32:55.637Z,51.37
2024-05-09T05:35:22.354Z,51.13
2024-05-09T05:37:48.935Z,50.71
2024-05-09T05:40:25.242Z,49.88
2024-05-09T05:42:59.306Z,49.31
2024-05-09T05:45:25.879Z,48.89
2024-05-09T05:47:54.658Z,47.64
2024-05-09T05:50:27.884Z,47.51
2024-05-09T05:53:01.621Z,47.00
2024-05-09T05:55:28.176Z,46.66
2024-05-09T05:57:54.859Z,46.38
2024-05-09T06:00:29.111Z,46.23
2024-05-09T06:03:01.780Z,47.00
2024-05-09T06:05:28.389Z,45.57
2024-05-09T06:07:54.929Z,46.35
2024-05-09T06:10:25.796Z,45.40
2024-05-09T06:12:56.734Z,46.11
2024-05-09T06:15:23.208Z,46.18
2024-05-09T06:17:49.876Z,46.23
2024-05-09T06:20:23.429Z,46.69
2024-05-09T06:22:54.073Z,47.33
2024-05-09T06:25:20.649Z,47.80
2024-05-09T06:27:47.127Z,48.98
2024-05-09T06:30:24.908Z,49.16
2024-05-09T06:32:56.221Z,50.23
2024-05-09T06:35:22.819Z,51.20
2024-05-09T06:37:49.353Z,55.38
2024-05-09T06:40:21.370Z,56.06
2024-05-09T06:42:52.007Z,53.82
2024-05-09T06:45:18.482Z,56.74
2024-05-09T06:47:45.142Z,55.72
2024-05-09T06:50:20.196Z,57.19
2024-05-09T06:52:50.527Z,57.77
2024-05-09T06:55:17.033Z,56.07
2024-05-09T06:57:43.519Z,53.33
2024-05-09T07:00:15.444Z,56.67
2024-05-09T07:02:45.305Z,53.01
2024-05-09T07:05:11.900Z,50.00
2024-05-09T07:07:38.419Z,54.52
2024-05-09T07:10:07.769Z,53.34
2024-05-09T07:12:36.422Z,51.98
2024-05-09T07:15:02.998Z,53.64
2024-05-09T07:17:29.785Z,53.25
2024-05-09T07:19:56.520Z,52.68
2024-05-09T07:22:23.007Z,52.44
2024-05-09T07:24:49.458Z,51.22
2024-05-09T07:27:15.923Z,51.07
2024-05-09T07:29:42.428Z,51.93
2024-05-09T07:32:09.392Z,52.72
2024-05-09T07:34:36.069Z,51.84
2024-05-09T07:37:02.787Z,53.70
2024-05-09T07:39:29.275Z,51.64
2024-05-09T07:41:55.735Z,50.17
2024-05-09T07:44:22.236Z,50.95
2024-05-09T07:47:48.768Z,49.85
2024-05-09T07:54:34.365Z,50.20
2024-05-09T07:57:01.019Z,51.05
2024-05-09T07:59:27.514Z,48.13
2024-05-09T08:01:54.046Z,49.47
2024-05-09T08:04:22.399Z,48.63
2024-05-09T08:06:49.538Z,49.13
2024-05-09T08:09:20.596Z,47.96
2024-05-09T08:11:47.800Z,44.58
2024-05-09T08:14:14.294Z,45.34
2024-05-09T08:16:40.778Z,45.71
2024-05-09T08:19:07.347Z,42.61
2024-05-09T08:21:33.906Z,44.65
2024-05-09T08:24:00.385Z,45.06
2024-05-09T08:26:26.842Z,42.74
2024-05-09T08:28:53.298Z,42.18
2024-05-09T08:31:19.835Z,42.25
2024-05-09T08:33:47.783Z,41.50
2024-05-09T08:36:14.701Z,41.75
2024-05-09T08:38:41.191Z,39.59
2024-05-09T08:41:07.717Z,41.67
2024-05-09T08:43:34.671Z,38.74
2024-05-09T08:46:02.637Z,37.67
2024-05-09T08:48:31.139Z,39.28
2024-05-09T08:50:57.814Z,40.72
2024-05-09T08:53:24.278Z,38.93
2024-05-09T08:55:51.327Z,38.96
2024-05-09T08:58:18.445Z,38.38
2024-05-09T09:00:46.552Z,37.55
2024-05-09T09:03:24.817Z,40.00
2024-05-09T09:05:58.976Z,37.31
2024-05-09T09:08:26.478Z,38.94
2024-05-09T09:10:57.481Z,39.43
2024-05-09T09:13:24.074Z,35.71
2024-05-09T09:15:50.712Z,37.85
2024-05-09T09:18:18.545Z,37.07
2024-05-09T09:20:45.581Z,37.98
2024-05-09T09:23:12.221Z,33.79
2024-05-09T09:25:42.203Z,36.25
2024-05-09T09:28:09.849Z,37.22
2024-05-09T09:30:43.213Z,40.16
2024-05-09T09:33:10.461Z,38.75
2024-05-09T09:35:40.014Z,35.13
2024-05-09T09:38:08.242Z,34.79
2024-05-09T09:40:44.997Z,36.59
2024-05-09T09:43:19.452Z,38.28
2024-05-09T09:45:49.660Z,38.24
2024-05-09T09:48:16.679Z,33.20
2024-05-09T09:50:43.512Z,35.79
2024-05-09T09:53:11.165Z,36.02
2024-05-09T09:55:39.628Z,36.16
2024-05-09T09:58:09.626Z,37.86
2024-05-09T10:00:38.487Z,36.37
2024-05-09T10:03:05.376Z,36.39
2024-05-09T10:05:33.603Z,38.78
2024-05-09T10:08:05.017Z,36.64
2024-05-09T10:10:34.585Z,37.40
2024-05-09T10:13:08.497Z,33.39
2024-05-09T10:15:54.101Z,36.41
2024-05-09T10:18:21.246Z,33.57
2024-05-09T10:20:48.040Z,35.94
2024-05-09T10:23:27.987Z,40.07
2024-05-09T10:26:04.812Z,37.58
2024-05-09T10:28:33.477Z,37.96
2024-05-09T10:31:02.008Z,40.17
2024-05-09T10:33:46.117Z,38.58
2024-05-09T10:36:26.086Z,37.49
2024-05-09T10:38:54.015Z,35.63
2024-05-09T10:41:22.776Z,34.25
2024-05-09T10:43:50.187Z,37.36
2024-05-09T10:46:17.237Z,35.92
2024-05-09T10:48:44.423Z,33.40
2024-05-09T10:51:13.023Z,34.92
2024-05-09T10:53:47.745Z,40.76
2024-05-09T10:56:14.731Z,38.91
2024-05-09T10:58:41.575Z,40.12
2024-05-09T11:01:08.702Z,39.53
2024-05-09T11:03:36.124Z,42.40
2024-05-09T11:06:03.135Z,41.73
2024-05-09T11:08:31.239Z,37.15
2024-05-09T11:10:57.972Z,36.13
2024-05-09T11:13:32.148Z,36.37
2024-05-09T11:15:59.860Z,38.16
2024-05-09T11:18:30.765Z,35.88
2024-05-09T11:21:00.300Z,37.23
2024-05-09T11:23:27.676Z,39.97
2024-05-09T11:25:55.613Z,34.69
2024-05-09T11:28:22.619Z,37.56
2024-05-09T11:30:50.868Z,33.71
2024-05-09T11:33:19.588Z,32.96
2024-05-09T11:35:47.091Z,37.42
2024-05-09T11:38:13.820Z,37.90
2024-05-09T11:40:40.550Z,33.95
2024-05-09T11:43:07.120Z,38.06
2024-05-09T11:45:33.728Z,35.96
2024-05-09T11:48:00.450Z,34.01
2024-05-09T11:50:30.329Z,35.15
2024-05-09T11:53:01.495Z,36.65
2024-05-09T11:55:28.607Z,38.11
2024-05-09T11:57:55.604Z,35.90
2024-05-09T12:00:29.628Z,34.67
2024-05-09T12:03:03.355Z,36.53
2024-05-09T12:05:29.963Z,35.74
2024-05-09T12:07:56.682Z,35.17
2024-05-09T12:10:32.062Z,34.29
2024-05-09T12:13:01.059Z,34.87
2024-05-09T12:15:27.604Z,33.61
2024-05-09T12:17:54.979Z,31.96
2024-05-09T12:20:28.785Z,33.08
2024-05-09T12:23:02.210Z,33.66
2024-05-09T12:25:28.678Z,35.14
2024-05-09T12:27:55.279Z,39.34
2024-05-09T12:30:32.532Z,33.86
2024-05-09T12:33:04.159Z,32.84
2024-05-09T12:35:30.735Z,33.30
2024-05-09T12:37:57.207Z,40.77
2024-05-09T12:40:31.826Z,36.56
2024-05-09T12:43:02.952Z,37.92
2024-05-09T12:45:29.468Z,37.10
2024-05-09T12:47:56.105Z,33.60
2024-05-09T12:50:29.891Z,32.45
2024-05-09T12:52:59.414Z,39.34
2024-05-09T12:55:25.899Z,34.21
2024-05-09T12:57:52.438Z,32.82
2024-05-09T13:00:24.092Z,33.59
2024-05-09T13:02:57.682Z,33.31
2024-05-09T13:05:24.671Z,33.24
2024-05-09T13:07:51.318Z,35.47
2024-05-09T13:10:25.808Z,33.09
2024-05-09T13:12:58.188Z,33.74
2024-05-09T13:15:24.694Z,32.94
2024-05-09T13:17:51.213Z,34.02
2024-05-09T13:20:26.097Z,34.75
2024-05-09T13:22:59.859Z,37.26
2024-05-09T13:25:26.324Z,33.28
2024-05-09T13:27:53.069Z,32.86
2024-05-09T13:30:28.731Z,33.80
2024-05-09T13:33:01.938Z,33.03
2024-05-09T13:35:28.536Z,32.28
2024-05-09T13:37:55.110Z,37.43
2024-05-09T13:40:29.990Z,37.01
2024-05-09T13:43:00.707Z,36.00
2024-05-09T13:45:27.197Z,34.95
2024-05-09T13:47:54.310Z,32.58
2024-05-09T13:50:30.530Z,34.34
2024-05-09T13:53:00.716Z,34.79
2024-05-09T13:55:27.203Z,34.34
2024-05-09T13:57:53.875Z,33.63
2024-05-09T14:00:37.208Z,32.22
2024-05-09T14:03:07.063Z,32.77
2024-05-09T14:05:33.809Z,32.95
2024-05-09T14:08:00.544Z,31.89
2024-05-09T14:12:55.102Z,36.69
2024-05-09T14:15:21.655Z,35.80
2024-05-09T14:17:48.154Z,36.56
2024-05-09T14:20:22.947Z,37.32
2024-05-09T14:22:55.194Z,34.95
2024-05-09T14:25:21.910Z,36.03
2024-05-09T14:27:48.416Z,35.26
2024-05-09T14:30:22.803Z,37.20
2024-05-09T14:32:57.085Z,35.83
2024-05-09T14:35:23.611Z,35.05
2024-05-09T14:37:50.089Z,32.61
2024-05-09T14:40:30.520Z,35.56
2024-05-09T14:43:03.273Z,35.88
2024-05-09T14:45:29.946Z,36.48
2024-05-09T14:47:56.770Z,37.13
2024-05-09T14:50:28.300Z,37.92
2024-05-09T14:53:01.530Z,36.23
2024-05-09T14:55:28.160Z,36.03
2024-05-09T14:57:54.715Z,37.41
2024-05-09T15:00:26.391Z,36.16
2024-05-09T15:02:59.424Z,41.29
2024-05-09T15:05:26.122Z,39.98
2024-05-09T15:07:52.704Z,35.98
2024-05-09T15:10:26.874Z,32.33
2024-05-09T15:13:00.495Z,32.73
2024-05-09T15:15:27.010Z,34.41
2024-05-09T15:17:54.726Z,33.96
2024-05-09T15:20:30.348Z,33.51
2024-05-09T15:23:00.984Z,35.06
2024-05-09T15:25:27.726Z,33.96
2024-05-09T15:27:54.790Z,32.95
2024-05-09T15:30:29.827Z,34.16
2024-05-09T15:32:58.896Z,34.46
2024-05-09T15:35:25.412Z,35.22
2024-05-09T15:37:51.883Z,34.60
2024-05-09T15:40:26.455Z,35.15
2024-05-09T15:43:02.147Z,33.82
2024-05-09T15:45:28.945Z,34.91
2024-05-09T15:47:56.904Z,35.54
2024-05-09T15:50:35.094Z,35.37
2024-05-09T15:53:05.724Z,36.80
2024-05-09T15:55:32.205Z,36.97
2024-05-09T15:58:02.902Z,36.27
2024-05-09T16:00:37.050Z,35.43
2024-05-09T16:03:07.430Z,35.81
2024-05-09T16:05:34.322Z,36.73
2024-05-09T16:08:00.917Z,37.74
2024-05-09T16:10:32.549Z,38.36
2024-05-09T16:13:00.950Z,36.68
2024-05-09T16:15:27.598Z,36.79
2024-05-09T16:17:54.172Z,37.31
2024-05-09T16:20:33.290Z,36.99
2024-05-09T16:23:05.013Z,36.91
2024-05-09T16:25:31.536Z,35.64
2024-05-09T16:27:58.213Z,36.23
2024-05-09T16:30:31.720Z,36.67
2024-05-09T16:33:01.865Z,37.18
2024-05-09T16:35:28.509Z,38.24
2024-05-09T16:37:55.063Z,37.81
2024-05-09T16:40:29.765Z,38.23
2024-05-09T16:43:03.731Z,38.90
2024-05-09T16:45:30.518Z,38.57
2024-05-09T16:47:57.359Z,38.91
2024-05-09T16:50:29.411Z,38.19
2024-05-09T16:52:59.342Z,38.91
2024-05-09T16:55:25.880Z,37.88
2024-05-09T16:57:52.696Z,39.56
2024-05-09T17:00:30.865Z,40.21
2024-05-09T17:03:06.035Z,38.15
2024-05-09T17:05:33.041Z,38.67
2024-05-09T17:07:59.967Z,40.36
2024-05-09T17:10:32.262Z,38.91
2024-05-09T17:13:00.996Z,39.85
2024-05-09T17:15:27.519Z,38.37
2024-05-09T17:17:54.085Z,38.74
2024-05-09T17:20:29.384Z,40.59
2024-05-09T17:23:00.273Z,40.26
2024-05-09T17:25:26.825Z,39.97
2024-05-09T17:27:53.806Z,40.83
2024-05-09T17:30:28.710Z,40.73
2024-05-09T17:33:00.966Z,40.89
2024-05-09T17:35:27.632Z,40.13
2024-05-09T17:37:54.242Z,40.52
2024-05-09T17:40:27.739Z,41.89
2024-05-09T17:42:59.647Z,41.82
2024-05-09T17:45:26.158Z,41.38
2024-05-09T17:47:52.933Z,42.29
2024-05-09T17:50:27.316Z,43.48
2024-05-09T17:53:00.249Z,41.44
2024-05-09T17:55:26.810Z,44.96
2024-05-09T17:57:53.445Z,47.71
2024-05-09T18:00:28.952Z,47.94
2024-05-09T18:03:03.649Z,43.99
2024-05-09T18:05:30.347Z,44.35
2024-05-09T18:07:57.244Z,49.00
2024-05-09T18:10:29.938Z,51.18
2024-05-09T18:13:02.290Z,49.88
2024-05-09T18:15:28.875Z,51.50
2024-05-09T18:17:55.458Z,51.14
2024-05-09T18:20:32.579Z,51.63
2024-05-09T18:23:07.227Z,52.72
2024-05-09T18:25:33.724Z,53.02
2024-05-09T18:28:02.527Z,52.90
2024-05-09T18:30:34.452Z,53.43
2024-05-09T18:33:03.455Z,53.87
2024-05-09T18:35:30.090Z,53.95
2024-05-09T18:37:56.737Z,54.37
2024-05-09T18:40:31.392Z,54.44
2024-05-09T18:43:01.904Z,54.87
2024-05-09T18:45:28.915Z,55.38
2024-05-09T18:47:55.883Z,54.29
2024-05-09T18:50:31.849Z,55.92
2024-05-09T18:53:02.510Z,56.23
2024-05-09T18:55:28.977Z,56.51
2024-05-09T18:57:55.489Z,56.77
2024-05-09T19:00:31.564Z,57.01
2024-05-09T19:03:02.662Z,57.13
2024-05-09T19:05:29.528Z,57.52
2024-05-09T19:07:56.507Z,57.36
2024-05-09T19:10:26.306Z,57.70
2024-05-09T19:12:58.600Z,58.59
2024-05-09T19:15:25.117Z,58.13
2024-05-09T19:17:51.810Z,58.70
2024-05-09T19:20:25.260Z,58.97
2024-05-09T19:22:57.878Z,58.27
2024-05-09T19:25:24.362Z,59.43
2024-05-09T19:27:50.959Z,59.35
2024-05-09T19:30:25.427Z,59.57
2024-05-09T19:33:00.916Z,59.92
2024-05-09T19:35:27.516Z,59.86
2024-05-09T19:37:54.056Z,60.74
2024-05-09T19:40:28.625Z,60.33
2024-05-09T19:42:58.442Z,61.06
2024-05-09T19:45:25.058Z,61.18
2024-05-09T19:47:51.772Z,60.65
2024-05-09T19:50:26.620Z,61.58
2024-05-09T19:52:59.254Z,62.07
2024-05-09T19:55:25.764Z,61.22
2024-05-09T19:57:52.273Z,62.11
2024-05-09T20:00:25.979Z,62.35
2024-05-09T20:02:56.243Z,62.64
2024-05-09T20:05:23.301Z,62.54
2024-05-09T20:07:50.187Z,62.55
2024-05-09T20:10:23.454Z,62.63
2024-05-09T20:12:53.193Z,63.21
2024-05-09T20:15:19.731Z,63.65
2024-05-09T20:17:46.373Z,63.69
2024-05-09T20:20:23.500Z,64.19
2024-05-09T20:22:55.195Z,64.11
2024-05-09T20:25:21.731Z,64.41
2024-05-09T20:27:48.272Z,64.54
2024-05-09T20:30:21.355Z,64.63
2024-05-09T20:32:54.558Z,65.20
2024-05-09T20:35:21.172Z,65.76
2024-05-09T20:37:47.710Z,65.74
2024-05-09T20:40:21.233Z,65.54
2024-05-09T20:42:52.171Z,65.35
2024-05-09T20:45:18.707Z,65.44
2024-05-09T20:47:45.281Z,65.78
2024-05-09T20:50:20.587Z,65.20
2024-05-09T20:52:55.148Z,65.57
2024-05-09T20:55:21.744Z,65.86
2024-05-09T20:57:48.323Z,66.40
2024-05-09T21:00:18.540Z,65.99
2024-05-09T21:02:45.848Z,65.92
2024-05-09T21:05:13.515Z,65.56
2024-05-09T21:07:40.006Z,65.59
2024-05-09T21:10:15.179Z,65.92
2024-05-09T21:12:45.815Z,65.63
2024-05-09T21:15:12.367Z,65.90
2024-05-09T21:17:38.964Z,65.85
2024-05-09T21:20:11.427Z,65.83
2024-05-09T21:22:43.294Z,66.10
2024-05-09T21:25:09.894Z,65.92
2024-05-09T21:27:36.450Z,66.15
2024-05-09T21:30:04.384Z,65.92
2024-05-09T21:32:32.484Z,66.35
2024-05-09T21:34:59.007Z,65.56
2024-05-09T21:37:25.491Z,65.97
2024-05-09T21:39:51.994Z,65.48
2024-05-09T21:42:18.514Z,65.89
2024-05-09T21:44:44.987Z,65.86
2024-05-09T21:47:11.503Z,66.22
2024-05-09T21:49:38.022Z,65.74
2024-05-09T21:52:04.909Z,65.81
2024-05-09T21:54:31.806Z,65.91
2024-05-09T21:56:58.297Z,65.68
2024-05-09T21:59:24.835Z,64.94
2024-05-09T22:01:51.564Z,65.19
2024-05-09T22:04:18.167Z,65.10
2024-05-09T22:06:44.714Z,65.21
2024-05-09T22:09:11.180Z,65.01
2024-05-09T22:11:37.761Z,64.69
2024-05-09T22:14:04.269Z,64.75
2024-05-09T22:16:31.398Z,64.57
2024-05-09T22:18:58.085Z,64.54
2024-05-09T22:21:24.706Z,64.32
2024-05-09T22:23:52.123Z,64.00
2024-05-09T22:26:18.590Z,63.52
2024-05-09T22:28:45.050Z,63.59
2024-05-09T22:31:11.549Z,63.64
2024-05-09T22:33:38.287Z,63.51
2024-05-09T22:36:07.385Z,63.90
2024-05-09T22:38:33.908Z,64.16
2024-05-09T22:41:00.520Z,64.48
2024-05-09T22:43:27.151Z,64.30
2024-05-09T22:45:53.885Z,64.47
2024-05-09T22:48:20.749Z,64.42
2024-05-09T22:50:47.365Z,64.52
2024-05-09T22:53:13.883Z,64.74
2024-05-09T22:55:40.417Z,65.14
2024-05-09T22:58:07.002Z,65.26
2024-05-09T23:00:33.824Z,65.04
2024-05-09T23:03:01.629Z,65.07
2024-05-09T23:05:28.830Z,64.74
2024-05-09T23:07:55.597Z,65.50
2024-05-09T23:10:30.801Z,65.10
2024-05-09T23:13:01.735Z,65.03
2024-05-09T23:15:28.583Z,64.89
2024-05-09T23:17:55.212Z,65.09
2024-05-09T23:20:32.804Z,65.50
2024-05-09T23:23:04.215Z,65.05
2024-05-09T23:25:30.710Z,64.94
2024-05-09T23:27:57.315Z,65.46
2024-05-09T23:30:33.309Z,65.13
2024-05-09T23:33:04.660Z,65.09
2024-05-09T23:35:31.227Z,65.25
2024-05-09T23:37:57.732Z,65.52
2024-05-09T23:40:34.652Z,65.67
2024-05-09T23:43:05.075Z,65.39
2024-05-09T23:45:31.601Z,65.71
2024-05-09T23:47:58.108Z,65.48
2024-05-09T23:50:33.100Z,65.98
2024-05-09T23:53:02.884Z,65.94
2024-05-09T23:55:29.426Z,65.83
2024-05-09T23:57:55.962Z,65.68
